sensor_id;sensor_type;location;lat;lon;timestamp;pressure;altitude;pressure_sealevel;temperature
30765;BMP180;494;48.744;10.106;2023-04-24T00:01:48;94854.00;;;8.60
30765;BMP180;494;48.744;10.106;2023-04-24T00:04:18;94846.00;;;12.10
30765;BMP180;494;48.744;10.106;2023-04-24T00:06:47;93956.00;;;12.10
30765;BMP180;494;48.744;10.106;2023-04-24T00:09:18;94599.00;;;12.30
30765;BMP180;494;48.744;10.106;2023-04-24T00:11:47;94001.00;;;12.30
30765;BMP180;494;48.744;10.106;2023-04-24T00:14:18;94500.00;;;12.30
30765;BMP180;494;48.744;10.106;2023-04-24T00:16:46;94900.00;;;10.10
30765;BMP180;494;48.744;10.106;2023-04-24T00:19:15;94746.00;;;12.20
30765;BMP180;494;48.744;10.106;2023-04-24T00:21:44;93930.00;;;10.20
30765;BMP180;494;48.744;10.106;2023-04-24T00:24:13;93889.00;;;8.90
30765;BMP180;494;48.744;10.106;2023-04-24T00:26:42;94836.00;;;12.20
30765;BMP180;494;48.744;10.106;2023-04-24T00:29:15;94741.00;;;12.10
30765;BMP180;494;48.744;10.106;2023-04-24T00:31:49;93854.00;;;12.00
30765;BMP180;494;48.744;10.106;2023-04-24T00:34:18;94334.00;;;11.80
30765;BMP180;494;48.744;10.106;2023-04-24T00:36:48;94196.00;;;10.90
30765;BMP180;494;48.744;10.106;2023-04-24T00:39:19;94358.00;;;12.30
30765;BMP180;494;48.744;10.106;2023-04-24T00:41:48;94702.00;;;12.20
30765;BMP180;494;48.744;10.106;2023-04-24T00:44:19;94102.00;;;12.10
30765;BMP180;494;48.744;10.106;2023-04-24T00:46:50;94150.00;;;11.50
30765;BMP180;494;48.744;10.106;2023-04-24T00:49:22;94403.00;;;12.10
30765;BMP180;494;48.744;10.106;2023-04-24T00:51:51;94449.00;;;9.40
30765;BMP180;494;48.744;10.106;2023-04-24T00:54:21;94601.00;;;12.00
30765;BMP180;494;48.744;10.106;2023-04-24T00:56:50;94553.00;;;12.00
30765;BMP180;494;48.744;10.106;2023-04-24T00:59:19;94736.00;;;11.90
30765;BMP180;494;48.744;10.106;2023-04-24T01:01:50;94830.00;;;11.50
30765;BMP180;494;48.744;10.106;2023-04-24T01:04:21;94729.00;;;11.70
30765;BMP180;494;48.744;10.106;2023-04-24T01:06:50;94796.00;;;11.60
30765;BMP180;494;48.744;10.106;2023-04-24T01:09:21;93529.00;;;11.60
30765;BMP180;494;48.744;10.106;2023-04-24T01:11:51;94094.00;;;11.70
30765;BMP180;494;48.744;10.106;2023-04-24T01:14:21;94658.00;;;10.30
30765;BMP180;494;48.744;10.106;2023-04-24T01:16:51;94555.00;;;11.80
30765;BMP180;494;48.744;10.106;2023-04-24T01:19:20;94353.00;;;11.70
30765;BMP180;494;48.744;10.106;2023-04-24T01:21:53;94712.00;;;11.50
30765;BMP180;494;48.744;10.106;2023-04-24T01:24:24;94709.00;;;10.40
30765;BMP180;494;48.744;10.106;2023-04-24T01:26:55;94353.00;;;11.00
30765;BMP180;494;48.744;10.106;2023-04-24T01:29:24;93772.00;;;11.30
30765;BMP180;494;48.744;10.106;2023-04-24T01:31:54;94476.00;;;11.70
30765;BMP180;494;48.744;10.106;2023-04-24T01:34:26;94605.00;;;11.60
30765;BMP180;494;48.744;10.106;2023-04-24T01:36:54;94549.00;;;11.50
30765;BMP180;494;48.744;10.106;2023-04-24T01:39:26;94506.00;;;11.70
30765;BMP180;494;48.744;10.106;2023-04-24T01:41:56;93437.00;;;11.70
30765;BMP180;494;48.744;10.106;2023-04-24T01:44:25;93829.00;;;9.80
30765;BMP180;494;48.744;10.106;2023-04-24T01:46:55;94570.00;;;11.60
30765;BMP180;494;48.744;10.106;2023-04-24T01:49:24;94627.00;;;11.70
30765;BMP180;494;48.744;10.106;2023-04-24T01:51:54;93882.00;;;11.80
30765;BMP180;494;48.744;10.106;2023-04-24T01:54:25;94560.00;;;11.70
30765;BMP180;494;48.744;10.106;2023-04-24T01:56:53;94380.00;;;11.60
30765;BMP180;494;48.744;10.106;2023-04-24T01:59:25;93920.00;;;11.50
30765;BMP180;494;48.744;10.106;2023-04-24T02:01:54;93782.00;;;9.10
30765;BMP180;494;48.744;10.106;2023-04-24T02:04:24;94689.00;;;11.20
30765;BMP180;494;48.744;10.106;2023-04-24T02:06:56;94685.00;;;11.30
30765;BMP180;494;48.744;10.106;2023-04-24T02:09:27;94823.00;;;11.30
30765;BMP180;494;48.744;10.106;2023-04-24T02:11:57;94697.00;;;11.30
30765;BMP180;494;48.744;10.106;2023-04-24T02:14:27;94540.00;;;11.30
30765;BMP180;494;48.744;10.106;2023-04-24T02:16:56;94220.00;;;9.90
30765;BMP180;494;48.744;10.106;2023-04-24T02:19:25;94659.00;;;11.30
30765;BMP180;494;48.744;10.106;2023-04-24T02:21:54;94675.00;;;10.60
30765;BMP180;494;48.744;10.106;2023-04-24T02:24:22;94442.00;;;11.20
30765;BMP180;494;48.744;10.106;2023-04-24T02:26:52;94524.00;;;11.40
30765;BMP180;494;48.744;10.106;2023-04-24T02:29:21;94230.00;;;10.70
30765;BMP180;494;48.744;10.106;2023-04-24T02:31:50;94433.00;;;11.40
30765;BMP180;494;48.744;10.106;2023-04-24T02:34:19;94682.00;;;11.40
30765;BMP180;494;48.744;10.106;2023-04-24T02:36:48;94544.00;;;11.30
30765;BMP180;494;48.744;10.106;2023-04-24T02:39:17;94550.00;;;11.50
30765;BMP180;494;48.744;10.106;2023-04-24T02:41:46;94617.00;;;11.40
30765;BMP180;494;48.744;10.106;2023-04-24T02:44:17;94680.00;;;11.50
30765;BMP180;494;48.744;10.106;2023-04-24T02:46:45;94447.00;;;11.50
30765;BMP180;494;48.744;10.106;2023-04-24T02:49:15;94691.00;;;11.50
30765;BMP180;494;48.744;10.106;2023-04-24T02:51:44;94493.00;;;11.40
30765;BMP180;494;48.744;10.106;2023-04-24T02:54:13;94679.00;;;11.00
30765;BMP180;494;48.744;10.106;2023-04-24T02:56:41;94685.00;;;11.30
30765;BMP180;494;48.744;10.106;2023-04-24T02:59:10;94683.00;;;11.20
30765;BMP180;494;48.744;10.106;2023-04-24T03:01:40;94674.00;;;11.10
30765;BMP180;494;48.744;10.106;2023-04-24T03:04:09;93585.00;;;11.10
30765;BMP180;494;48.744;10.106;2023-04-24T03:06:39;94609.00;;;11.20
30765;BMP180;494;48.744;10.106;2023-04-24T03:09:08;94671.00;;;11.20
30765;BMP180;494;48.744;10.106;2023-04-24T03:11:37;94669.00;;;11.20
30765;BMP180;494;48.744;10.106;2023-04-24T03:14:06;94510.00;;;11.20
30765;BMP180;494;48.744;10.106;2023-04-24T03:16:35;94676.00;;;10.70
30765;BMP180;494;48.744;10.106;2023-04-24T03:19:06;94649.00;;;9.20
30765;BMP180;494;48.744;10.106;2023-04-24T03:21:35;94644.00;;;10.20
30765;BMP180;494;48.744;10.106;2023-04-24T03:24:08;94329.00;;;11.00
30765;BMP180;494;48.744;10.106;2023-04-24T03:26:36;94215.00;;;11.10
30765;BMP180;494;48.744;10.106;2023-04-24T03:29:05;94673.00;;;11.00
30765;BMP180;494;48.744;10.106;2023-04-24T03:31:34;94086.00;;;10.60
30765;BMP180;494;48.744;10.106;2023-04-24T03:34:04;94474.00;;;11.00
30765;BMP180;494;48.744;10.106;2023-04-24T03:36:33;94003.00;;;10.50
30765;BMP180;494;48.744;10.106;2023-04-24T03:39:02;94616.00;;;11.20
30765;BMP180;494;48.744;10.106;2023-04-24T03:41:31;94683.00;;;10.40
30765;BMP180;494;48.744;10.106;2023-04-24T03:44:01;93678.00;;;9.60
30765;BMP180;494;48.744;10.106;2023-04-24T03:46:29;94491.00;;;11.20
30765;BMP180;494;48.744;10.106;2023-04-24T03:48:58;94676.00;;;11.30
30765;BMP180;494;48.744;10.106;2023-04-24T03:51:29;94415.00;;;11.30
30765;BMP180;494;48.744;10.106;2023-04-24T03:53:58;94505.00;;;11.20
30765;BMP180;494;48.744;10.106;2023-04-24T03:56:27;94651.00;;;11.20
30765;BMP180;494;48.744;10.106;2023-04-24T03:58:57;94697.00;;;11.00
30765;BMP180;494;48.744;10.106;2023-04-24T04:01:25;94564.00;;;11.10
30765;BMP180;494;48.744;10.106;2023-04-24T04:03:57;94576.00;;;11.10
30765;BMP180;494;48.744;10.106;2023-04-24T04:06:29;94521.00;;;11.10
30765;BMP180;494;48.744;10.106;2023-04-24T04:08:59;94544.00;;;11.20
30765;BMP180;494;48.744;10.106;2023-04-24T04:11:28;93862.00;;;11.30
30765;BMP180;494;48.744;10.106;2023-04-24T04:13:56;94717.00;;;11.20
30765;BMP180;494;48.744;10.106;2023-04-24T04:16:26;94724.00;;;11.30
30765;BMP180;494;48.744;10.106;2023-04-24T04:18:55;94091.00;;;11.20
30765;BMP180;494;48.744;10.106;2023-04-24T04:21:24;94210.00;;;11.20
30765;BMP180;494;48.744;10.106;2023-04-24T04:23:55;94683.00;;;11.20
30765;BMP180;494;48.744;10.106;2023-04-24T04:26:24;94427.00;;;11.30
30765;BMP180;494;48.744;10.106;2023-04-24T04:28:53;94578.00;;;11.40
30765;BMP180;494;48.744;10.106;2023-04-24T04:31:21;93709.00;;;11.30
30765;BMP180;494;48.744;10.106;2023-04-24T04:33:50;94694.00;;;11.40
30765;BMP180;494;48.744;10.106;2023-04-24T04:36:19;94455.00;;;11.40
30765;BMP180;494;48.744;10.106;2023-04-24T04:38:49;94370.00;;;11.50
30765;BMP180;494;48.744;10.106;2023-04-24T04:41:19;94400.00;;;11.30
30765;BMP180;494;48.744;10.106;2023-04-24T04:43:47;93876.00;;;11.60
30765;BMP180;494;48.744;10.106;2023-04-24T04:46:18;94513.00;;;11.40
30765;BMP180;494;48.744;10.106;2023-04-24T04:48:46;94646.00;;;11.50
30765;BMP180;494;48.744;10.106;2023-04-24T04:51:15;94258.00;;;11.60
30765;BMP180;494;48.744;10.106;2023-04-24T04:53:44;94435.00;;;11.70
30765;BMP180;494;48.744;10.106;2023-04-24T04:56:13;94589.00;;;11.50
30765;BMP180;494;48.744;10.106;2023-04-24T04:58:44;94533.00;;;11.60
30765;BMP180;494;48.744;10.106;2023-04-24T05:01:13;94300.00;;;11.70
30765;BMP180;494;48.744;10.106;2023-04-24T05:03:43;94548.00;;;11.70
30765;BMP180;494;48.744;10.106;2023-04-24T05:06:12;93904.00;;;11.00
30765;BMP180;494;48.744;10.106;2023-04-24T05:08:46;94458.00;;;11.50
30765;BMP180;494;48.744;10.106;2023-04-24T05:11:16;94620.00;;;11.70
30765;BMP180;494;48.744;10.106;2023-04-24T05:13:47;94120.00;;;11.60
30765;BMP180;494;48.744;10.106;2023-04-24T05:16:17;94585.00;;;11.70
30765;BMP180;494;48.744;10.106;2023-04-24T05:18:46;94741.00;;;11.80
30765;BMP180;494;48.744;10.106;2023-04-24T05:21:15;94813.00;;;11.90
30765;BMP180;494;48.744;10.106;2023-04-24T05:23:45;94715.00;;;12.00
30765;BMP180;494;48.744;10.106;2023-04-24T05:26:15;94683.00;;;11.90
30765;BMP180;494;48.744;10.106;2023-04-24T05:28:50;94731.00;;;12.10
30765;BMP180;494;48.744;10.106;2023-04-24T05:31:20;94340.00;;;11.10
30765;BMP180;494;48.744;10.106;2023-04-24T05:33:48;94568.00;;;12.20
30765;BMP180;494;48.744;10.106;2023-04-24T05:36:17;94807.00;;;12.30
30765;BMP180;494;48.744;10.106;2023-04-24T05:38:46;94548.00;;;12.30
30765;BMP180;494;48.744;10.106;2023-04-24T05:41:16;94286.00;;;12.30
30765;BMP180;494;48.744;10.106;2023-04-24T05:43:44;94464.00;;;12.20
30765;BMP180;494;48.744;10.106;2023-04-24T05:46:15;94823.00;;;12.50
30765;BMP180;494;48.744;10.106;2023-04-24T05:48:43;94842.00;;;11.20
30765;BMP180;494;48.744;10.106;2023-04-24T05:51:14;93560.00;;;8.90
30765;BMP180;494;48.744;10.106;2023-04-24T05:53:43;93830.00;;;9.60
30765;BMP180;494;48.744;10.106;2023-04-24T05:56:14;94829.00;;;9.40
30765;BMP180;494;48.744;10.106;2023-04-24T05:58:46;93938.00;;;9.30
30765;BMP180;494;48.744;10.106;2023-04-24T06:01:17;94954.00;;;8.90
30765;BMP180;494;48.744;10.106;2023-04-24T06:03:49;93789.00;;;5.60
30765;BMP180;494;48.744;10.106;2023-04-24T06:06:19;94948.00;;;8.20
30765;BMP180;494;48.744;10.106;2023-04-24T06:08:50;93938.00;;;9.40
30765;BMP180;494;48.744;10.106;2023-04-24T06:11:19;95018.00;;;7.10
30765;BMP180;494;48.744;10.106;2023-04-24T06:13:50;95022.00;;;8.50
30765;BMP180;494;48.744;10.106;2023-04-24T06:16:36;94285.00;;;9.70
30765;BMP180;494;48.744;10.106;2023-04-24T06:19:07;95128.00;;;3.60
30765;BMP180;494;48.744;10.106;2023-04-24T06:21:59;94934.00;;;9.90
30765;BMP180;494;48.744;10.106;2023-04-24T06:25:12;94799.00;;;5.90
30765;BMP180;494;48.744;10.106;2023-04-24T06:27:50;94111.00;;;9.50
30765;BMP180;494;48.744;10.106;2023-04-24T06:30:31;94797.00;;;9.90
30765;BMP180;494;48.744;10.106;2023-04-24T06:33:03;94927.00;;;10.10
30765;BMP180;494;48.744;10.106;2023-04-24T06:35:46;94039.00;;;9.80
30765;BMP180;494;48.744;10.106;2023-04-24T06:38:15;94390.00;;;10.60
30765;BMP180;494;48.744;10.106;2023-04-24T06:40:45;94703.00;;;10.80
30765;BMP180;494;48.744;10.106;2023-04-24T06:43:15;95062.00;;;11.00
30765;BMP180;494;48.744;10.106;2023-04-24T06:45:47;94983.00;;;10.80
30765;BMP180;494;48.744;10.106;2023-04-24T06:48:18;94004.00;;;5.60
30765;BMP180;494;48.744;10.106;2023-04-24T06:50:47;93867.00;;;7.60
30765;BMP180;494;48.744;10.106;2023-04-24T06:53:16;93789.00;;;7.80
30765;BMP180;494;48.744;10.106;2023-04-24T06:55:54;94948.00;;;10.60
30765;BMP180;494;48.744;10.106;2023-04-24T06:58:25;94821.00;;;11.20
30765;BMP180;494;48.744;10.106;2023-04-24T07:00:56;94844.00;;;10.10
30765;BMP180;494;48.744;10.106;2023-04-24T07:03:28;94911.00;;;11.30
30765;BMP180;494;48.744;10.106;2023-04-24T07:06:00;94218.00;;;7.20
30765;BMP180;494;48.744;10.106;2023-04-24T07:08:37;94082.00;;;9.90
30765;BMP180;494;48.744;10.106;2023-04-24T07:11:08;94698.00;;;7.30
30765;BMP180;494;48.744;10.106;2023-04-24T07:13:39;94795.00;;;9.20
30765;BMP180;494;48.744;10.106;2023-04-24T07:16:09;93756.00;;;10.70
30765;BMP180;494;48.744;10.106;2023-04-24T07:18:41;94672.00;;;10.90
30765;BMP180;494;48.744;10.106;2023-04-24T07:21:10;94670.00;;;9.90
30765;BMP180;494;48.744;10.106;2023-04-24T07:23:39;93807.00;;;11.10
30765;BMP180;494;48.744;10.106;2023-04-24T07:26:08;94851.00;;;11.60
30765;BMP180;494;48.744;10.106;2023-04-24T07:28:37;94709.00;;;11.50
30765;BMP180;494;48.744;10.106;2023-04-24T07:31:07;94008.00;;;11.20
30765;BMP180;494;48.744;10.106;2023-04-24T07:33:36;93949.00;;;10.20
30765;BMP180;494;48.744;10.106;2023-04-24T07:36:06;94824.00;;;10.40
30765;BMP180;494;48.744;10.106;2023-04-24T07:38:35;94516.00;;;12.20
30765;BMP180;494;48.744;10.106;2023-04-24T07:41:04;94929.00;;;10.30
30765;BMP180;494;48.744;10.106;2023-04-24T07:43:34;94464.00;;;9.20
30765;BMP180;494;48.744;10.106;2023-04-24T07:46:03;94852.00;;;12.20
30765;BMP180;494;48.744;10.106;2023-04-24T07:48:35;94771.00;;;11.80
30765;BMP180;494;48.744;10.106;2023-04-24T07:51:06;94781.00;;;9.90
30765;BMP180;494;48.744;10.106;2023-04-24T07:53:37;94750.00;;;10.40
30765;BMP180;494;48.744;10.106;2023-04-24T07:56:07;94412.00;;;12.30
30765;BMP180;494;48.744;10.106;2023-04-24T07:58:36;94726.00;;;12.70
30765;BMP180;494;48.744;10.106;2023-04-24T08:01:05;94735.00;;;12.60
30765;BMP180;494;48.744;10.106;2023-04-24T08:03:34;94790.00;;;12.70
30765;BMP180;494;48.744;10.106;2023-04-24T08:06:07;94484.00;;;13.80
30765;BMP180;494;48.744;10.106;2023-04-24T08:08:35;94610.00;;;12.50
30765;BMP180;494;48.744;10.106;2023-04-24T08:11:04;94694.00;;;13.70
30765;BMP180;494;48.744;10.106;2023-04-24T08:13:33;94030.00;;;13.70
30765;BMP180;494;48.744;10.106;2023-04-24T08:16:02;94757.00;;;13.40
30765;BMP180;494;48.744;10.106;2023-04-24T08:18:31;94862.00;;;13.30
30765;BMP180;494;48.744;10.106;2023-04-24T08:21:02;94816.00;;;13.00
30765;BMP180;494;48.744;10.106;2023-04-24T08:23:32;94862.00;;;13.90
30765;BMP180;494;48.744;10.106;2023-04-24T08:26:01;94899.00;;;14.40
30765;BMP180;494;48.744;10.106;2023-04-24T08:28:30;94850.00;;;14.30
30765;BMP180;494;48.744;10.106;2023-04-24T08:30:59;94747.00;;;13.80
30765;BMP180;494;48.744;10.106;2023-04-24T08:33:28;94519.00;;;13.80
30765;BMP180;494;48.744;10.106;2023-04-24T08:36:02;94730.00;;;13.00
30765;BMP180;494;48.744;10.106;2023-04-24T08:38:33;94810.00;;;12.60
30765;BMP180;494;48.744;10.106;2023-04-24T08:41:02;94894.00;;;12.50
30765;BMP180;494;48.744;10.106;2023-04-24T08:43:34;94468.00;;;11.60
30765;BMP180;494;48.744;10.106;2023-04-24T08:46:05;94741.00;;;11.20
30765;BMP180;494;48.744;10.106;2023-04-24T08:48:38;94887.00;;;10.30
30765;BMP180;494;48.744;10.106;2023-04-24T08:51:08;94756.00;;;10.10
30765;BMP180;494;48.744;10.106;2023-04-24T08:53:40;94883.00;;;10.10
30765;BMP180;494;48.744;10.106;2023-04-24T08:56:11;94727.00;;;9.90
30765;BMP180;494;48.744;10.106;2023-04-24T08:58:42;94759.00;;;10.50
30765;BMP180;494;48.744;10.106;2023-04-24T09:01:12;94848.00;;;9.60
30765;BMP180;494;48.744;10.106;2023-04-24T09:03:43;94622.00;;;11.30
30765;BMP180;494;48.744;10.106;2023-04-24T09:06:13;94919.00;;;11.80
30765;BMP180;494;48.744;10.106;2023-04-24T09:08:45;94737.00;;;12.10
30765;BMP180;494;48.744;10.106;2023-04-24T09:11:15;94524.00;;;12.50
30765;BMP180;494;48.744;10.106;2023-04-24T09:13:49;94968.00;;;12.80
30765;BMP180;494;48.744;10.106;2023-04-24T09:16:20;93898.00;;;13.10
30765;BMP180;494;48.744;10.106;2023-04-24T09:18:51;94898.00;;;13.40
30765;BMP180;494;48.744;10.106;2023-04-24T09:21:21;94522.00;;;13.50
30765;BMP180;494;48.744;10.106;2023-04-24T09:24:16;94794.00;;;12.80
30765;BMP180;494;48.744;10.106;2023-04-24T09:26:46;94647.00;;;13.30
30765;BMP180;494;48.744;10.106;2023-04-24T09:29:17;94647.00;;;10.70
30765;BMP180;494;48.744;10.106;2023-04-24T09:31:46;95036.00;;;12.90
30765;BMP180;494;48.744;10.106;2023-04-24T09:34:22;94896.00;;;12.60
30765;BMP180;494;48.744;10.106;2023-04-24T09:36:52;94730.00;;;13.10
30765;BMP180;494;48.744;10.106;2023-04-24T09:39:23;94930.00;;;12.70
30765;BMP180;494;48.744;10.106;2023-04-24T09:41:55;94990.00;;;12.20
30765;BMP180;494;48.744;10.106;2023-04-24T09:44:27;94737.00;;;12.50
30765;BMP180;494;48.744;10.106;2023-04-24T09:46:57;94919.00;;;12.70
30765;BMP180;494;48.744;10.106;2023-04-24T09:49:29;94955.00;;;13.10
30765;BMP180;494;48.744;10.106;2023-04-24T09:52:04;94957.00;;;13.30
30765;BMP180;494;48.744;10.106;2023-04-24T09:54:36;94945.00;;;13.90
30765;BMP180;494;48.744;10.106;2023-04-24T09:57:07;94902.00;;;13.90
30765;BMP180;494;48.744;10.106;2023-04-24T09:59:43;94671.00;;;14.20
30765;BMP180;494;48.744;10.106;2023-04-24T10:02:18;94734.00;;;14.50
30765;BMP180;494;48.744;10.106;2023-04-24T10:04:56;94948.00;;;14.80
30765;BMP180;494;48.744;10.106;2023-04-24T10:07:27;94916.00;;;15.10
30765;BMP180;494;48.744;10.106;2023-04-24T10:09:58;94734.00;;;15.40
30765;BMP180;494;48.744;10.106;2023-04-24T10:12:28;94726.00;;;15.30
30765;BMP180;494;48.744;10.106;2023-04-24T10:14:59;94950.00;;;15.50
30765;BMP180;494;48.744;10.106;2023-04-24T10:17:29;94928.00;;;15.60
30765;BMP180;494;48.744;10.106;2023-04-24T10:20:01;94825.00;;;14.80
30765;BMP180;494;48.744;10.106;2023-04-24T10:22:32;95033.00;;;13.80
30765;BMP180;494;48.744;10.106;2023-04-24T10:25:08;94904.00;;;14.30
30765;BMP180;494;48.744;10.106;2023-04-24T10:27:39;94931.00;;;14.50
30765;BMP180;494;48.744;10.106;2023-04-24T10:30:14;94794.00;;;14.70
30765;BMP180;494;48.744;10.106;2023-04-24T10:32:46;94710.00;;;15.10
30765;BMP180;494;48.744;10.106;2023-04-24T10:35:19;94667.00;;;15.40
30765;BMP180;494;48.744;10.106;2023-04-24T10:37:59;94302.00;;;15.50
30765;BMP180;494;48.744;10.106;2023-04-24T10:40:35;94822.00;;;15.60
30765;BMP180;494;48.744;10.106;2023-04-24T10:43:09;94271.00;;;15.90
30765;BMP180;494;48.744;10.106;2023-04-24T10:45:40;94676.00;;;15.90
30765;BMP180;494;48.744;10.106;2023-04-24T10:48:11;94942.00;;;16.20
30765;BMP180;494;48.744;10.106;2023-04-24T10:50:46;94535.00;;;16.00
30765;BMP180;494;48.744;10.106;2023-04-24T10:53:18;94957.00;;;15.90
30765;BMP180;494;48.744;10.106;2023-04-24T10:55:50;94906.00;;;15.40
30765;BMP180;494;48.744;10.106;2023-04-24T10:58:23;94881.00;;;15.20
30765;BMP180;494;48.744;10.106;2023-04-24T11:00:59;94884.00;;;15.40
30765;BMP180;494;48.744;10.106;2023-04-24T11:03:33;94983.00;;;15.30
30765;BMP180;494;48.744;10.106;2023-04-24T11:06:04;94695.00;;;15.50
30765;BMP180;494;48.744;10.106;2023-04-24T11:08:39;94620.00;;;15.90
30765;BMP180;494;48.744;10.106;2023-04-24T11:11:14;94716.00;;;16.20
30765;BMP180;494;48.744;10.106;2023-04-24T11:14:06;94946.00;;;16.60
30765;BMP180;494;48.744;10.106;2023-04-24T11:16:41;94972.00;;;17.00
30765;BMP180;494;48.744;10.106;2023-04-24T11:19:22;94967.00;;;16.40
30765;BMP180;494;48.744;10.106;2023-04-24T11:21:58;94958.00;;;15.60
30765;BMP180;494;48.744;10.106;2023-04-24T11:24:38;94968.00;;;15.40
30765;BMP180;494;48.744;10.106;2023-04-24T11:27:14;94990.00;;;14.80
30765;BMP180;494;48.744;10.106;2023-04-24T11:29:47;94973.00;;;14.90
30765;BMP180;494;48.744;10.106;2023-04-24T11:32:26;94996.00;;;14.90
30765;BMP180;494;48.744;10.106;2023-04-24T11:35:00;94664.00;;;15.00
30765;BMP180;494;48.744;10.106;2023-04-24T11:37:35;94919.00;;;16.10
30765;BMP180;494;48.744;10.106;2023-04-24T11:40:08;94898.00;;;16.50
30765;BMP180;494;48.744;10.106;2023-04-24T11:42:44;94846.00;;;16.40
30765;BMP180;494;48.744;10.106;2023-04-24T11:45:15;94974.00;;;15.60
30765;BMP180;494;48.744;10.106;2023-04-24T11:47:45;94986.00;;;14.80
30765;BMP180;494;48.744;10.106;2023-04-24T11:50:16;94979.00;;;15.10
30765;BMP180;494;48.744;10.106;2023-04-24T11:52:47;94895.00;;;15.60
30765;BMP180;494;48.744;10.106;2023-04-24T11:55:27;95006.00;;;15.70
30765;BMP180;494;48.744;10.106;2023-04-24T11:57:59;95010.00;;;15.80
30765;BMP180;494;48.744;10.106;2023-04-24T12:00:31;94987.00;;;15.60
30765;BMP180;494;48.744;10.106;2023-04-24T12:03:07;94997.00;;;15.90
30765;BMP180;494;48.744;10.106;2023-04-24T12:05:36;94998.00;;;15.90
30765;BMP180;494;48.744;10.106;2023-04-24T12:08:06;94970.00;;;16.10
30765;BMP180;494;48.744;10.106;2023-04-24T12:10:35;95012.00;;;16.20
30765;BMP180;494;48.744;10.106;2023-04-24T12:13:09;95016.00;;;16.30
30765;BMP180;494;48.744;10.106;2023-04-24T12:15:40;94924.00;;;16.20
30765;BMP180;494;48.744;10.106;2023-04-24T12:18:12;95047.00;;;16.40
30765;BMP180;494;48.744;10.106;2023-04-24T12:20:41;95013.00;;;15.90
30765;BMP180;494;48.744;10.106;2023-04-24T12:23:09;94941.00;;;15.50
30765;BMP180;494;48.744;10.106;2023-04-24T12:25:39;94935.00;;;15.50
30765;BMP180;494;48.744;10.106;2023-04-24T12:28:13;95019.00;;;15.30
30765;BMP180;494;48.744;10.106;2023-04-24T12:30:44;94831.00;;;15.10
30765;BMP180;494;48.744;10.106;2023-04-24T12:33:17;94910.00;;;15.00
30765;BMP180;494;48.744;10.106;2023-04-24T12:35:51;94895.00;;;15.10
30765;BMP180;494;48.744;10.106;2023-04-24T12:38:24;94898.00;;;15.60
30765;BMP180;494;48.744;10.106;2023-04-24T12:41:03;95010.00;;;15.30
30765;BMP180;494;48.744;10.106;2023-04-24T12:43:35;95010.00;;;14.90
30765;BMP180;494;48.744;10.106;2023-04-24T12:46:05;94892.00;;;13.90
30765;BMP180;494;48.744;10.106;2023-04-24T12:48:33;94897.00;;;14.60
30765;BMP180;494;48.744;10.106;2023-04-24T12:51:02;95062.00;;;15.10
30765;BMP180;494;48.744;10.106;2023-04-24T12:53:31;94927.00;;;15.20
30765;BMP180;494;48.744;10.106;2023-04-24T12:56:00;95039.00;;;16.00
30765;BMP180;494;48.744;10.106;2023-04-24T12:58:28;94938.00;;;16.90
30765;BMP180;494;48.744;10.106;2023-04-24T13:00:58;94657.00;;;16.90
30765;BMP180;494;48.744;10.106;2023-04-24T13:03:28;95037.00;;;16.00
30765;BMP180;494;48.744;10.106;2023-04-24T13:05:57;95039.00;;;15.80
30765;BMP180;494;48.744;10.106;2023-04-24T13:08:25;94563.00;;;14.10
30765;BMP180;494;48.744;10.106;2023-04-24T13:10:54;94985.00;;;15.00
30765;BMP180;494;48.744;10.106;2023-04-24T13:13:25;95078.00;;;15.00
30765;BMP180;494;48.744;10.106;2023-04-24T13:16:09;94938.00;;;14.20
30765;BMP180;494;48.744;10.106;2023-04-24T13:18:38;95051.00;;;13.70
30765;BMP180;494;48.744;10.106;2023-04-24T13:21:07;94811.00;;;13.10
30765;BMP180;494;48.744;10.106;2023-04-24T13:23:36;95046.00;;;13.70
30765;BMP180;494;48.744;10.106;2023-04-24T13:26:05;94502.00;;;13.80
30765;BMP180;494;48.744;10.106;2023-04-24T13:28:34;94733.00;;;14.50
30765;BMP180;494;48.744;10.106;2023-04-24T13:31:05;95027.00;;;15.20
30765;BMP180;494;48.744;10.106;2023-04-24T13:33:39;95046.00;;;15.40
30765;BMP180;494;48.744;10.106;2023-04-24T13:36:08;94875.00;;;15.50
30765;BMP180;494;48.744;10.106;2023-04-24T13:38:37;94874.00;;;15.40
30765;BMP180;494;48.744;10.106;2023-04-24T13:41:06;95072.00;;;14.60
30765;BMP180;494;48.744;10.106;2023-04-24T13:43:36;94925.00;;;14.50
30765;BMP180;494;48.744;10.106;2023-04-24T13:46:05;95047.00;;;14.50
30765;BMP180;494;48.744;10.106;2023-04-24T13:48:34;95049.00;;;14.30
30765;BMP180;494;48.744;10.106;2023-04-24T13:51:04;95050.00;;;13.80
30765;BMP180;494;48.744;10.106;2023-04-24T13:53:33;94966.00;;;13.70
30765;BMP180;494;48.744;10.106;2023-04-24T13:56:05;94978.00;;;14.10
30765;BMP180;494;48.744;10.106;2023-04-24T13:58:35;94916.00;;;14.50
30765;BMP180;494;48.744;10.106;2023-04-24T14:01:07;94843.00;;;14.60
30765;BMP180;494;48.744;10.106;2023-04-24T14:03:38;95040.00;;;14.90
30765;BMP180;494;48.744;10.106;2023-04-24T14:06:08;94693.00;;;14.80
30765;BMP180;494;48.744;10.106;2023-04-24T14:08:37;94858.00;;;14.80
30765;BMP180;494;48.744;10.106;2023-04-24T14:11:06;95004.00;;;15.00
30765;BMP180;494;48.744;10.106;2023-04-24T14:13:36;94905.00;;;15.00
30765;BMP180;494;48.744;10.106;2023-04-24T14:16:07;95061.00;;;15.10
30765;BMP180;494;48.744;10.106;2023-04-24T14:18:36;95040.00;;;14.60
30765;BMP180;494;48.744;10.106;2023-04-24T14:21:05;94883.00;;;14.50
30765;BMP180;494;48.744;10.106;2023-04-24T14:23:36;95052.00;;;14.30
30765;BMP180;494;48.744;10.106;2023-04-24T14:26:05;95118.00;;;14.50
30765;BMP180;494;48.744;10.106;2023-04-24T14:28:35;94986.00;;;14.70
30765;BMP180;494;48.744;10.106;2023-04-24T14:31:06;94613.00;;;13.90
30765;BMP180;494;48.744;10.106;2023-04-24T14:33:37;95173.00;;;13.40
30765;BMP180;494;48.744;10.106;2023-04-24T14:36:07;94903.00;;;13.30
30765;BMP180;494;48.744;10.106;2023-04-24T14:38:37;94990.00;;;13.30
30765;BMP180;494;48.744;10.106;2023-04-24T14:41:07;94974.00;;;13.50
30765;BMP180;494;48.744;10.106;2023-04-24T14:43:40;94989.00;;;13.60
30765;BMP180;494;48.744;10.106;2023-04-24T14:46:10;95067.00;;;14.70